createdAt,value
2023-05-24T00:00:53.594Z,2.60
2023-05-24T00:03:22.654Z,3.00
2023-05-24T00:05:55.517Z,3.10
2023-05-24T00:08:24.925Z,3.00
2023-05-24T00:10:53.574Z,3.03
2023-05-24T00:13:22.377Z,2.83
2023-05-24T00:15:50.930Z,3.27
2023-05-24T00:18:20.015Z,2.63
2023-05-24T00:20:49.100Z,2.43
2023-05-24T00:23:20.911Z,2.80
2023-05-24T00:25:49.758Z,2.70
2023-05-24T00:28:18.750Z,2.90
2023-05-24T00:30:51.452Z,2.70
2023-05-24T00:33:23.585Z,2.47
2023-05-24T00:35:56.826Z,2.93
2023-05-24T00:38:28.324Z,2.70
2023-05-24T00:40:57.429Z,3.10
2023-05-24T00:43:26.036Z,3.33
2023-05-24T00:46:15.628Z,2.73
2023-05-24T00:48:45.427Z,3.90
2023-05-24T00:51:14.965Z,2.70
2023-05-24T00:53:48.164Z,2.90
2023-05-24T00:56:20.169Z,3.10
2023-05-24T00:58:51.899Z,3.33
2023-05-24T01:01:21.539Z,3.60
2023-05-24T01:03:50.330Z,3.63
2023-05-24T01:06:21.377Z,3.60
2023-05-24T01:09:15.640Z,3.70
2023-05-24T01:12:11.782Z,3.50
2023-05-24T01:14:52.823Z,2.33
2023-05-24T01:17:27.046Z,3.40
2023-05-24T01:20:00.380Z,3.60
2023-05-24T01:23:00.474Z,4.37
2023-05-24T01:25:55.719Z,3.10
2023-05-24T01:28:26.826Z,4.13
2023-05-24T01:30:57.196Z,3.53
2023-05-24T01:33:27.218Z,2.70
2023-05-24T01:35:55.770Z,2.73
2023-05-24T01:38:25.167Z,3.20
2023-05-24T01:41:02.865Z,3.40
2023-05-24T01:43:40.859Z,2.83
2023-05-24T01:46:24.648Z,3.30
2023-05-24T01:49:07.959Z,3.70
2023-05-24T01:51:44.822Z,2.60
2023-05-24T01:54:15.522Z,3.17
2023-05-24T01:56:49.064Z,3.10
2023-05-24T01:59:20.564Z,3.80
2023-05-24T02:01:50.519Z,2.90
2023-05-24T02:04:20.274Z,3.00
2023-05-24T02:06:52.170Z,3.60
2023-05-24T02:09:21.011Z,3.27
2023-05-24T02:11:52.078Z,3.87
2023-05-24T02:14:22.251Z,3.03
2023-05-24T02:16:51.146Z,3.70
2023-05-24T02:19:21.520Z,3.50
2023-05-24T02:21:51.753Z,3.80
2023-05-24T02:24:20.709Z,3.20
2023-05-24T02:26:49.516Z,3.47
2023-05-24T02:29:21.946Z,3.90
2023-05-24T02:31:56.299Z,3.90
2023-05-24T02:34:25.886Z,4.33
2023-05-24T02:36:56.152Z,3.93
2023-05-24T02:39:25.156Z,3.43
2023-05-24T02:41:53.705Z,3.53
2023-05-24T02:44:24.114Z,4.37
2023-05-24T02:46:54.940Z,4.30
2023-05-24T02:49:23.748Z,4.20
2023-05-24T02:51:53.086Z,4.23
2023-05-24T02:54:21.639Z,4.63
2023-05-24T02:56:50.470Z,4.03
2023-05-24T02:59:21.196Z,3.67
2023-05-24T03:01:50.996Z,3.63
2023-05-24T03:04:22.004Z,3.37
2023-05-24T03:06:51.150Z,4.23
2023-05-24T03:09:20.483Z,4.03
2023-05-24T03:11:49.699Z,4.00
2023-05-24T03:14:20.638Z,3.80
2023-05-24T03:16:51.402Z,4.40
2023-05-24T03:19:22.045Z,4.20
2023-05-24T03:21:51.227Z,3.67
2023-05-24T03:24:20.672Z,3.00
2023-05-24T03:26:50.200Z,4.20
2023-05-24T03:29:19.489Z,3.90
2023-05-24T03:31:48.491Z,3.93
2023-05-24T03:34:17.295Z,2.90
2023-05-24T03:36:47.876Z,3.90
2023-05-24T03:39:16.521Z,3.63
2023-05-24T03:42:06.594Z,4.47
2023-05-24T03:44:37.199Z,3.60
2023-05-24T03:47:08.738Z,3.70
2023-05-24T03:49:37.683Z,3.90
2023-05-24T03:52:08.666Z,3.97
2023-05-24T03:54:38.504Z,3.83
2023-05-24T03:57:08.049Z,3.50
2023-05-24T03:59:39.777Z,3.53
2023-05-24T04:02:11.072Z,5.17
2023-05-24T04:04:40.766Z,3.97
2023-05-24T04:07:12.095Z,3.73
2023-05-24T04:09:41.598Z,3.20
2023-05-24T04:12:11.973Z,3.27
2023-05-24T04:14:43.906Z,3.50
2023-05-24T04:17:14.372Z,5.77
2023-05-24T04:19:52.504Z,4.27
2023-05-24T04:22:23.779Z,4.00
2023-05-24T04:24:54.373Z,3.13
2023-05-24T04:27:23.365Z,3.70
2023-05-24T04:29:54.027Z,3.43
2023-05-24T04:32:23.497Z,4.47
2023-05-24T04:34:53.829Z,4.03
2023-05-24T04:37:25.467Z,3.13
2023-05-24T04:39:54.542Z,4.60
2023-05-24T04:42:23.174Z,3.50
2023-05-24T04:44:52.203Z,3.57
2023-05-24T04:47:20.698Z,4.10
2023-05-24T04:49:50.179Z,3.93
2023-05-24T04:52:20.074Z,3.97
2023-05-24T04:54:51.520Z,4.07
2023-05-24T04:57:20.439Z,4.30
2023-05-24T04:59:48.923Z,3.77
2023-05-24T05:02:17.918Z,3.73
2023-05-24T05:04:46.995Z,3.60
2023-05-24T05:07:15.735Z,3.90
2023-05-24T05:09:44.749Z,4.23
2023-05-24T05:12:16.371Z,3.90
2023-05-24T05:14:46.787Z,3.87
2023-05-24T05:17:15.935Z,4.17
2023-05-24T05:19:44.572Z,4.17
2023-05-24T05:22:14.584Z,3.47
2023-05-24T05:24:43.494Z,3.23
2023-05-24T05:27:12.406Z,4.43
2023-05-24T05:29:42.988Z,3.13
2023-05-24T05:32:12.911Z,3.17
2023-05-24T05:34:41.749Z,2.97
2023-05-24T05:37:10.489Z,3.57
2023-05-24T05:39:39.054Z,3.50
2023-05-24T05:42:08.520Z,3.00
2023-05-24T05:44:37.632Z,2.97
2023-05-24T05:47:09.826Z,3.53
2023-05-24T05:49:38.839Z,4.10
2023-05-24T05:52:08.185Z,4.70
2023-05-24T05:54:36.877Z,3.47
2023-05-24T05:57:08.376Z,3.10
2023-05-24T05:59:38.822Z,3.67
2023-05-24T06:02:09.596Z,3.67
2023-05-24T06:04:39.679Z,4.00
2023-05-24T06:07:10.028Z,4.00
2023-05-24T06:09:40.309Z,3.40
2023-05-24T06:12:09.205Z,3.80
2023-05-24T06:14:39.045Z,3.63
2023-05-24T06:17:11.364Z,3.37
2023-05-24T06:19:40.207Z,3.30
2023-05-24T06:22:08.943Z,4.00
2023-05-24T06:24:39.680Z,3.70
2023-05-24T06:27:08.481Z,3.20
2023-05-24T06:29:37.568Z,3.50
2023-05-24T06:32:07.584Z,3.73
2023-05-24T06:34:37.862Z,3.40
2023-05-24T06:37:10.633Z,4.03
2023-05-24T06:39:40.637Z,3.97
2023-05-24T06:42:09.739Z,4.80
2023-05-24T06:44:39.453Z,3.33
2023-05-24T06:47:09.653Z,4.27
2023-05-24T06:49:40.128Z,3.53
2023-05-24T06:52:09.858Z,2.90
2023-05-24T06:54:40.753Z,3.67
2023-05-24T06:57:09.712Z,4.47
2023-05-24T06:59:38.578Z,4.07
2023-05-24T07:02:08.092Z,3.50
2023-05-24T07:04:36.671Z,3.80
2023-05-24T07:07:06.982Z,3.57
2023-05-24T07:09:36.105Z,3.30
2023-05-24T07:12:08.912Z,3.50
2023-05-24T07:14:38.908Z,3.57
2023-05-24T07:17:08.850Z,3.00
2023-05-24T07:19:39.053Z,3.30
2023-05-24T07:22:09.451Z,3.90
2023-05-24T07:24:38.074Z,4.07
2023-05-24T07:27:07.278Z,3.43
2023-05-24T07:29:36.069Z,3.70
2023-05-24T07:32:07.448Z,4.23
2023-05-24T07:34:36.692Z,3.60
2023-05-24T07:37:08.428Z,3.63
2023-05-24T07:39:39.065Z,4.10
2023-05-24T07:42:11.068Z,3.00
2023-05-24T07:44:40.280Z,4.33
2023-05-24T07:47:08.778Z,3.50
2023-05-24T07:49:39.236Z,3.20
2023-05-24T07:52:09.349Z,4.10
2023-05-24T07:54:38.102Z,3.40
2023-05-24T07:57:09.492Z,3.33
2023-05-24T07:59:40.190Z,3.30
2023-05-24T08:02:11.888Z,4.30
2023-05-24T08:04:41.343Z,3.80
2023-05-24T08:07:11.890Z,4.17
2023-05-24T08:09:42.465Z,3.60
2023-05-24T08:12:10.981Z,4.17
2023-05-24T08:14:39.496Z,4.70
2023-05-24T08:17:08.351Z,3.47
2023-05-24T08:19:37.742Z,3.70
2023-05-24T08:22:08.069Z,4.03
2023-05-24T08:24:39.328Z,4.17
2023-05-24T08:27:09.079Z,4.00
2023-05-24T08:29:40.230Z,3.47
2023-05-24T08:32:09.690Z,3.90
2023-05-24T08:34:40.120Z,3.40
2023-05-24T08:37:10.519Z,2.93
2023-05-24T08:39:40.789Z,4.60
2023-05-24T08:42:10.611Z,3.83
2023-05-24T08:44:43.877Z,4.50
2023-05-24T08:47:13.267Z,4.37
2023-05-24T08:49:44.138Z,3.73
2023-05-24T08:52:14.545Z,4.17
2023-05-24T08:54:46.833Z,3.73
2023-05-24T08:57:17.003Z,4.60
2023-05-24T08:59:45.974Z,3.53
2023-05-24T09:02:17.223Z,4.40
2023-05-24T09:04:48.028Z,3.57
2023-05-24T09:07:19.792Z,3.63
2023-05-24T09:09:58.051Z,3.13
2023-05-24T09:15:05.419Z,3.30
2023-05-24T09:17:34.865Z,3.93
2023-05-24T09:20:06.990Z,3.60
2023-05-24T09:22:40.311Z,3.10
2023-05-24T09:25:15.813Z,3.63
2023-05-24T09:27:55.254Z,3.80
2023-05-24T09:30:24.440Z,3.60
2023-05-24T09:32:59.743Z,4.43
2023-05-24T09:35:31.332Z,3.33
2023-05-24T09:38:01.274Z,3.53
2023-05-24T09:40:32.451Z,4.27
2023-05-24T09:43:06.137Z,3.87
2023-05-24T09:45:40.771Z,3.27
2023-05-24T09:48:14.012Z,4.23
2023-05-24T09:50:43.299Z,2.87
2023-05-24T09:53:13.553Z,3.97
2023-05-24T09:55:45.451Z,4.30
2023-05-24T09:58:17.110Z,4.77
2023-05-24T10:00:49.211Z,3.20
2023-05-24T10:03:18.323Z,4.00
2023-05-24T10:05:48.511Z,3.27
2023-05-24T10:08:18.490Z,3.70
2023-05-24T10:10:51.147Z,4.60
2023-05-24T10:13:24.192Z,3.80
2023-05-24T10:15:53.224Z,4.50
2023-05-24T10:18:23.773Z,3.87
2023-05-24T10:20:53.878Z,4.17
2023-05-24T10:23:24.040Z,3.77
2023-05-24T10:26:06.790Z,4.70
2023-05-24T10:28:40.113Z,3.60
2023-05-24T10:31:13.227Z,3.50
2023-05-24T10:33:45.198Z,4.53
2023-05-24T10:36:16.233Z,5.27
2023-05-24T10:38:48.177Z,4.30
2023-05-24T10:41:22.483Z,3.93
2023-05-24T10:44:07.897Z,3.60
2023-05-24T10:46:38.656Z,3.93
2023-05-24T10:49:08.125Z,4.97
2023-05-24T10:51:39.454Z,4.07
2023-05-24T10:54:17.009Z,2.90
2023-05-24T10:56:52.374Z,4.47
2023-05-24T10:59:37.885Z,4.67
2023-05-24T11:02:14.412Z,3.27
2023-05-24T11:04:44.684Z,4.50
2023-05-24T11:07:15.502Z,3.60
2023-05-24T11:09:47.652Z,3.90
2023-05-24T11:12:20.991Z,4.67
2023-05-24T11:14:51.407Z,4.20
2023-05-24T11:17:23.129Z,3.93
2023-05-24T11:19:57.040Z,3.97
2023-05-24T11:22:27.853Z,4.07
2023-05-24T11:24:57.896Z,3.57
2023-05-24T11:27:28.032Z,3.93
2023-05-24T11:29:59.948Z,4.03
2023-05-24T11:32:29.308Z,3.80
2023-05-24T11:35:00.249Z,4.37
2023-05-24T11:37:42.602Z,3.63
2023-05-24T11:40:16.777Z,3.20
2023-05-24T11:42:46.986Z,3.40
2023-05-24T11:45:16.411Z,4.23
2023-05-24T11:47:45.619Z,3.23
2023-05-24T11:50:18.133Z,2.83
2023-05-24T11:52:47.359Z,3.67
2023-05-24T11:55:17.171Z,3.20
2023-05-24T11:57:57.495Z,3.80
2023-05-24T12:00:27.764Z,3.50
2023-05-24T12:03:02.039Z,3.50
2023-05-24T12:05:32.190Z,3.40
2023-05-24T12:08:06.624Z,3.33
2023-05-24T12:10:37.259Z,3.23
2023-05-24T12:13:19.207Z,3.40
2023-05-24T12:15:47.749Z,2.87
2023-05-24T12:18:21.221Z,2.93
2023-05-24T12:20:51.354Z,2.87
2023-05-24T12:23:24.856Z,2.70
2023-05-24T12:25:59.910Z,2.87
2023-05-24T12:28:36.417Z,2.70
2023-05-24T12:31:07.239Z,3.33
2023-05-24T12:33:36.507Z,2.70
2023-05-24T12:36:08.974Z,3.07
2023-05-24T12:38:40.342Z,2.80
2023-05-24T12:41:13.422Z,2.67
2023-05-24T12:43:45.944Z,2.60
2023-05-24T12:46:15.168Z,2.93
2023-05-24T12:48:44.087Z,2.67
2023-05-24T12:51:13.490Z,2.50
2023-05-24T12:53:43.468Z,3.03
2023-05-24T12:56:12.849Z,2.70
2023-05-24T12:58:41.432Z,3.20
2023-05-24T13:01:12.728Z,2.70
2023-05-24T13:03:41.540Z,3.30
2023-05-24T13:06:11.220Z,3.00
2023-05-24T13:08:41.004Z,2.47
2023-05-24T13:11:10.764Z,2.63
2023-05-24T13:13:39.991Z,2.00
2023-05-24T13:16:11.128Z,2.23
2023-05-24T13:18:40.249Z,2.43
2023-05-24T13:21:11.999Z,3.00
2023-05-24T13:23:43.590Z,2.70
2023-05-24T13:26:13.172Z,3.30
2023-05-24T13:28:58.731Z,3.10
2023-05-24T13:31:33.596Z,2.80
2023-05-24T13:34:02.293Z,2.50
2023-05-24T13:36:31.144Z,2.43
2023-05-24T13:41:33.232Z,3.37
2023-05-24T13:44:02.061Z,2.67
2023-05-24T13:46:36.561Z,2.27
2023-05-24T13:49:06.171Z,2.50
2023-05-24T13:51:35.143Z,2.87
2023-05-24T13:54:09.809Z,3.83
2023-05-24T13:56:39.912Z,2.80
2023-05-24T13:59:11.915Z,2.70
2023-05-24T14:01:42.429Z,3.10
2023-05-24T14:04:11.181Z,3.13
2023-05-24T14:06:40.460Z,2.70
2023-05-24T14:09:09.779Z,2.80
2023-05-24T14:11:38.663Z,2.57
2023-05-24T14:14:57.961Z,2.33
2023-05-24T14:16:58.441Z,2.40
2023-05-24T14:19:27.855Z,2.57
2023-05-24T14:21:57.437Z,2.47
2023-05-24T14:24:26.084Z,2.93
2023-05-24T14:26:55.057Z,2.47
2023-05-24T14:29:23.934Z,3.07
2023-05-24T14:31:52.594Z,3.00
2023-05-24T14:34:23.554Z,3.90
2023-05-24T14:36:54.005Z,2.80
2023-05-24T14:39:23.254Z,2.60
2023-05-24T14:41:51.755Z,2.27
2023-05-24T14:44:21.757Z,2.53
2023-05-24T14:46:50.668Z,2.47
2023-05-24T14:49:23.591Z,2.80
2023-05-24T14:51:52.457Z,2.30
2023-05-24T14:54:21.409Z,2.87
2023-05-24T14:56:51.287Z,1.83
2023-05-24T14:59:20.140Z,1.77
2023-05-24T15:01:49.213Z,2.97
2023-05-24T15:04:18.069Z,3.20
2023-05-24T15:06:48.845Z,2.63
2023-05-24T15:09:17.652Z,2.67
2023-05-24T15:11:46.193Z,2.77
2023-05-24T15:14:16.621Z,2.90
2023-05-24T15:16:45.731Z,2.90
2023-05-24T15:19:14.861Z,2.70
2023-05-24T15:21:43.743Z,2.20
2023-05-24T15:24:15.366Z,2.37
2023-05-24T15:26:43.925Z,2.40
2023-05-24T15:29:12.775Z,2.63
2023-05-24T15:31:41.458Z,2.43
2023-05-24T15:34:10.090Z,2.63
2023-05-24T15:36:39.392Z,2.10
2023-05-24T15:39:08.292Z,2.60
2023-05-24T15:41:38.528Z,2.10
2023-05-24T15:44:09.072Z,2.00
2023-05-24T15:46:38.730Z,2.90
2023-05-24T15:49:07.737Z,2.60
2023-05-24T15:54:08.472Z,2.90
2023-05-24T15:56:38.862Z,2.17
2023-05-24T15:59:07.666Z,2.10
2023-05-24T16:01:37.436Z,2.23
2023-05-24T16:04:05.998Z,2.33
2023-05-24T16:06:34.819Z,3.03
2023-05-24T16:09:05.511Z,2.23
2023-05-24T16:11:34.420Z,2.93
2023-05-24T16:14:05.650Z,3.43
2023-05-24T16:16:34.665Z,2.80
2023-05-24T16:19:03.489Z,3.00
2023-05-24T16:21:33.083Z,2.00
2023-05-24T16:24:03.631Z,1.93
2023-05-24T16:26:32.610Z,2.83
2023-05-24T16:29:01.784Z,2.77
2023-05-24T16:31:34.854Z,3.07
2023-05-24T16:34:03.511Z,3.00
2023-05-24T16:36:32.947Z,2.67
2023-05-24T16:39:02.133Z,2.33
2023-05-24T16:41:37.802Z,2.60
2023-05-24T16:44:06.937Z,2.87
2023-05-24T16:46:37.964Z,2.30
2023-05-24T16:49:07.075Z,3.47
2023-05-24T16:51:37.071Z,2.50
2023-05-24T16:54:08.603Z,2.30
2023-05-24T16:56:38.863Z,1.93
2023-05-24T16:59:07.985Z,1.80
2023-05-24T17:01:38.782Z,2.33
2023-05-24T17:04:08.039Z,2.53
2023-05-24T17:06:36.635Z,2.03
2023-05-24T17:09:05.287Z,1.90
2023-05-24T17:11:35.146Z,1.90
2023-05-24T17:14:05.625Z,2.00
2023-05-24T17:16:34.272Z,2.50
2023-05-24T17:19:04.700Z,1.63
2023-05-24T17:21:34.735Z,2.20
2023-05-24T17:24:03.525Z,2.37
2023-05-24T17:26:32.354Z,2.30
2023-05-24T17:29:00.896Z,1.80
2023-05-24T17:31:30.072Z,1.33
2023-05-24T17:33:59.075Z,2.20
2023-05-24T17:36:29.819Z,2.20
2023-05-24T17:38:59.166Z,2.00
2023-05-24T17:41:28.151Z,1.80
2023-05-24T17:43:56.925Z,1.63
2023-05-24T17:46:26.425Z,1.40
2023-05-24T17:48:55.662Z,1.37
2023-05-24T17:51:25.022Z,1.17
2023-05-24T17:53:55.860Z,1.67
2023-05-24T17:56:24.574Z,1.00
2023-05-24T17:58:53.486Z,1.23
2023-05-24T18:01:22.420Z,1.10
2023-05-24T18:03:52.307Z,1.30
2023-05-24T18:06:21.273Z,1.20
2023-05-24T18:08:50.080Z,1.37
2023-05-24T18:11:20.101Z,1.80
2023-05-24T18:13:49.711Z,1.80
2023-05-24T18:16:18.664Z,1.67
2023-05-24T18:18:47.678Z,3.53
2023-05-24T18:21:16.704Z,3.10
2023-05-24T18:23:45.889Z,1.87
2023-05-24T18:26:16.292Z,1.63
2023-05-24T18:28:47.137Z,1.80
2023-05-24T18:31:16.228Z,1.40
2023-05-24T18:33:45.800Z,1.10
2023-05-24T18:36:14.687Z,1.60
2023-05-24T18:38:43.177Z,2.50
2023-05-24T18:41:12.136Z,1.70
2023-05-24T18:43:44.287Z,1.70
2023-05-24T18:46:15.324Z,1.73
2023-05-24T18:48:45.249Z,1.40
2023-05-24T18:51:14.033Z,1.60
2023-05-24T18:53:43.170Z,1.80
2023-05-24T18:56:12.309Z,1.70
2023-05-24T18:58:42.815Z,1.70
2023-05-24T19:01:11.425Z,1.30
2023-05-24T19:03:42.075Z,1.77
2023-05-24T19:06:12.847Z,1.30
2023-05-24T19:08:42.738Z,1.50
2023-05-24T19:11:11.376Z,1.57
2023-05-24T19:13:40.343Z,1.87
2023-05-24T19:16:17.273Z,1.93
2023-05-24T19:18:47.932Z,1.47
2023-05-24T19:21:17.257Z,2.00
2023-05-24T19:23:46.388Z,1.70
2023-05-24T19:26:17.998Z,1.63
2023-05-24T19:28:50.519Z,2.47
2023-05-24T19:31:20.070Z,1.40
2023-05-24T19:33:59.842Z,1.70
2023-05-24T19:36:35.148Z,1.70
2023-05-24T19:39:04.011Z,2.20
2023-05-24T19:41:34.137Z,2.00
2023-05-24T19:44:02.675Z,2.60
2023-05-24T19:46:32.172Z,2.40
2023-05-24T19:49:02.206Z,2.00
2023-05-24T19:51:30.981Z,1.80
2023-05-24T19:54:01.203Z,2.20
2023-05-24T19:56:31.086Z,2.63
2023-05-24T19:59:00.280Z,2.20
2023-05-24T20:01:29.180Z,1.63
2023-05-24T20:03:58.309Z,1.70
2023-05-24T20:06:30.490Z,2.50
2023-05-24T20:09:00.066Z,2.47
2023-05-24T20:11:29.607Z,2.90
2023-05-24T20:13:59.049Z,2.50
2023-05-24T20:16:28.517Z,2.70
2023-05-24T20:18:57.295Z,2.50
2023-05-24T20:21:28.042Z,2.73
2023-05-24T20:23:58.711Z,3.23
2023-05-24T20:26:27.799Z,1.90
2023-05-24T20:28:57.836Z,2.30
2023-05-24T20:31:28.167Z,2.37
2023-05-24T20:33:57.157Z,1.70
2023-05-24T20:36:27.419Z,2.10
2023-05-24T20:38:56.345Z,1.93
2023-05-24T20:41:25.370Z,2.30
2023-05-24T20:43:54.242Z,2.13
2023-05-24T20:46:23.670Z,1.97
2023-05-24T20:48:54.000Z,2.00
2023-05-24T20:51:23.122Z,2.37
2023-05-24T20:53:56.233Z,1.87
2023-05-24T20:56:24.799Z,1.93
2023-05-24T20:58:54.867Z,2.00
2023-05-24T21:01:25.133Z,1.90
2023-05-24T21:03:54.124Z,1.90
2023-05-24T21:06:23.312Z,1.77
2023-05-24T21:08:56.921Z,2.00
2023-05-24T21:11:27.587Z,2.10
2023-05-24T21:13:58.336Z,1.90
2023-05-24T21:16:28.539Z,2.50
2023-05-24T21:19:02.224Z,2.40
2023-05-24T21:21:31.245Z,2.03
2023-05-24T21:24:01.259Z,2.10
2023-05-24T21:26:30.092Z,1.90
2023-05-24T21:29:00.185Z,2.20
2023-05-24T21:31:30.006Z,2.30
2023-05-24T21:33:59.267Z,1.70
2023-05-24T21:36:27.677Z,1.30
2023-05-24T21:38:57.063Z,2.37
2023-05-24T21:41:27.308Z,1.90
2023-05-24T21:43:57.848Z,1.87
2023-05-24T21:46:29.380Z,2.53
2023-05-24T21:48:58.470Z,1.90
2023-05-24T21:51:27.887Z,2.20
2023-05-24T21:53:56.355Z,2.30
2023-05-24T21:56:27.372Z,5.17
2023-05-24T21:58:57.019Z,2.83
2023-05-24T22:01:25.681Z,2.23
2023-05-24T22:03:55.103Z,2.10
2023-05-24T22:06:24.699Z,2.23
2023-05-24T22:08:53.701Z,2.20
2023-05-24T22:11:22.993Z,2.03
2023-05-24T22:13:53.440Z,1.77
2023-05-24T22:16:22.111Z,1.93
2023-05-24T22:18:56.652Z,2.17
2023-05-24T22:21:26.532Z,2.37
2023-05-24T22:23:55.186Z,2.33
2023-05-24T22:26:24.662Z,1.97
2023-05-24T22:29:00.486Z,2.40
2023-05-24T22:31:31.280Z,1.97
2023-05-24T22:34:02.557Z,2.70
2023-05-24T22:36:33.516Z,2.37
2023-05-24T22:39:02.628Z,3.27
2023-05-24T22:41:32.573Z,2.97
2023-05-24T22:44:02.890Z,2.83
2023-05-24T22:46:31.435Z,1.97
2023-05-24T22:49:03.033Z,2.00
2023-05-24T22:51:32.068Z,2.40
2023-05-24T22:54:02.242Z,2.20
2023-05-24T22:56:32.271Z,2.23
2023-05-24T22:59:02.314Z,2.40
2023-05-24T23:01:32.190Z,2.47
2023-05-24T23:04:15.768Z,2.47
2023-05-24T23:06:52.567Z,3.00
2023-05-24T23:09:33.999Z,2.77
2023-05-24T23:12:07.526Z,2.57
2023-05-24T23:14:39.957Z,2.80
2023-05-24T23:17:10.629Z,2.30
2023-05-24T23:19:42.726Z,2.80
2023-05-24T23:22:14.384Z,3.10
2023-05-24T23:24:44.033Z,3.03
2023-05-24T23:27:14.779Z,2.60
2023-05-24T23:29:45.425Z,2.67
2023-05-24T23:32:15.545Z,2.77
2023-05-24T23:34:45.209Z,2.63
2023-05-24T23:37:14.173Z,3.83
2023-05-24T23:39:42.751Z,3.40
2023-05-24T23:42:11.642Z,2.80
2023-05-24T23:44:40.221Z,3.00
2023-05-24T23:47:10.946Z,3.43
2023-05-24T23:49:40.659Z,3.10
2023-05-24T23:52:12.417Z,2.77
2023-05-24T23:54:40.871Z,3.00
2023-05-24T23:57:09.442Z,2.53
2023-05-24T23:59:38.805Z,2.23
